Time;durP1;ratioP1;P1;durP2;ratioP2;P2;SDS_P1;SDS_P2;PMS_P1;PMS_P2;Temp;Humidity;BMP_temperature;BMP_pressure;BME280_temperature;BME280_humidity;BME280_pressure;Samples;Min_cycle;Max_cycle;Signal;HPM_P1;HPM_P2
2023/03/23 00:01:36;;;;;;;;;;;13.30;99.90;;;;;;6306976;22;20397;-86
2023/03/23 00:04:02;;;;;;;;;;;12.10;99.90;;;;;;6308030;22;19986;-86
2023/03/23 00:06:32;;;;;;;;;;;13.00;99.90;;;;;;6308021;22;19949;-86
2023/03/23 00:09:11;;;;;;;;;;;13.40;99.90;;;;;;6295356;22;19906;-87
2023/03/23 00:11:39;;;;;;;;;;;13.10;99.90;;;;;;6307100;22;20269;-87
2023/03/23 00:14:05;;;;;;;;;;;11.30;99.90;;;;;;6308042;22;19907;-86
2023/03/23 00:16:37;;;;;;;;;;;12.70;99.90;;;;;;6307869;22;20381;-88
2023/03/23 00:19:07;;;;;;;;;;;12.40;99.90;;;;;;6308543;22;19926;-87
2023/03/23 00:21:53;;;;;;;;;;;12.20;99.90;;;;;;6306998;22;19907;-87
2023/03/23 00:24:19;;;;;;;;;;;12.10;99.90;;;;;;6308009;22;19931;-87
2023/03/23 00:26:53;;;;;;;;;;;13.10;99.90;;;;;;6307982;22;19926;-88
2023/03/23 00:29:25;;;;;;;;;;;13.00;99.90;;;;;;6307625;22;19907;-88
2023/03/23 00:31:57;;;;;;;;;;;11.60;99.90;;;;;;6307499;22;19903;-86
2023/03/23 00:34:33;;;;;;;;;;;12.20;99.90;;;;;;6307609;22;19903;-87
2023/03/23 00:37:16;;;;;;;;;;;13.00;99.90;;;;;;6307414;22;19914;-87
2023/03/23 00:39:44;;;;;;;;;;;12.20;99.90;;;;;;6330543;22;19926;-87
2023/03/23 00:42:16;;;;;;;;;;;12.50;99.90;;;;;;6339489;22;20230;-87
2023/03/23 00:45:16;;;;;;;;;;;11.40;99.90;;;;;;6338555;22;19932;-86
2023/03/23 00:47:46;;;;;;;;;;;11.50;99.90;;;;;;6338438;22;19977;-87
2023/03/23 00:50:23;;;;;;;;;;;13.60;99.90;;;;;;6337843;22;19903;-88
2023/03/23 00:52:58;;;;;;;;;;;12.20;99.90;;;;;;6338318;22;19902;-88
2023/03/23 00:55:33;;;;;;;;;;;12.80;99.90;;;;;;6339316;22;19933;-87
2023/03/23 00:57:59;;;;;;;;;;;12.20;99.90;;;;;;6338079;22;19992;-87
2023/03/23 01:00:27;;;;;;;;;;;13.20;99.90;;;;;;6339109;22;19948;-87
2023/03/23 01:02:53;;;;;;;;;;;12.20;99.90;;;;;;6339493;22;19977;-88
2023/03/23 01:05:21;;;;;;;;;;;13.10;99.90;;;;;;6347847;22;19890;-87
2023/03/23 01:07:46;;;;;;;;;;;12.30;99.90;;;;;;6365685;22;19894;-87
2023/03/23 01:10:18;;;;;;;;;;;13.10;99.90;;;;;;6356185;22;19907;-89
2023/03/23 01:12:44;;;;;;;;;;;12.00;99.90;;;;;;6336693;22;19903;-87
2023/03/23 01:15:16;;;;;;;;;;;12.30;99.90;;;;;;6339073;22;19945;-89
2023/03/23 01:17:57;;;;;;;;;;;12.30;99.90;;;;;;6338574;22;20010;-88
2023/03/23 01:20:26;;;;;;;;;;;12.10;99.90;;;;;;6338039;22;19903;-88
2023/03/23 01:22:52;;;;;;;;;;;13.30;99.90;;;;;;6338671;22;20372;-87
2023/03/23 01:25:18;;;;;;;;;;;13.10;99.90;;;;;;6338695;22;19902;-86
2023/03/23 01:27:44;;;;;;;;;;;12.30;99.90;;;;;;6338620;22;19907;-87
2023/03/23 01:30:33;;;;;;;;;;;12.80;99.90;;;;;;6338861;22;19907;-88
2023/03/23 01:33:05;;;;;;;;;;;12.30;99.90;;;;;;6316686;22;19903;-88
2023/03/23 01:35:48;;;;;;;;;;;12.20;99.90;;;;;;6338634;22;20302;-88
2023/03/23 01:38:14;;;;;;;;;;;12.70;99.90;;;;;;6310609;22;19949;-88
2023/03/23 01:40:39;;;;;;;;;;;13.30;99.90;;;;;;6306857;22;19903;-88
2023/03/23 01:43:09;;;;;;;;;;;12.30;99.90;;;;;;6307214;22;20331;-88
2023/03/23 01:45:40;;;;;;;;;;;13.30;99.90;;;;;;6307160;22;19902;-88
2023/03/23 01:48:18;;;;;;;;;;;11.60;99.90;;;;;;6307008;22;20414;-87
2023/03/23 01:51:02;;;;;;;;;;;12.30;99.90;;;;;;6306993;22;19903;-87
2023/03/23 01:53:38;;;;;;;;;;;11.40;99.90;;;;;;6307269;22;20217;-88
2023/03/23 01:56:14;;;;;;;;;;;12.30;99.90;;;;;;6307645;22;19915;-88
2023/03/23 01:58:48;;;;;;;;;;;12.10;99.90;;;;;;6306890;22;19903;-87
2023/03/23 02:01:24;;;;;;;;;;;13.00;99.90;;;;;;6329396;22;19919;-88
2023/03/23 02:03:51;;;;;;;;;;;12.20;99.90;;;;;;6337967;22;19956;-86
2023/03/23 02:06:16;;;;;;;;;;;12.30;99.90;;;;;;6338396;22;19921;-86
2023/03/23 02:08:43;;;;;;;;;;;13.40;99.90;;;;;;6339999;22;19910;-87
2023/03/23 02:11:17;;;;;;;;;;;13.60;99.90;;;;;;6372196;22;19910;-87
2023/03/23 02:13:44;;;;;;;;;;;12.30;99.90;;;;;;6371533;22;20279;-86
2023/03/23 02:16:28;;;;;;;;;;;13.20;99.90;;;;;;6372093;22;19946;-86
2023/03/23 02:19:08;;;;;;;;;;;12.30;99.90;;;;;;6371957;22;19902;-87
2023/03/23 02:21:46;;;;;;;;;;;12.30;99.90;;;;;;6371287;22;19902;-86
2023/03/23 02:24:17;;;;;;;;;;;12.30;99.90;;;;;;6372022;22;19977;-88
2023/03/23 02:26:42;;;;;;;;;;;12.30;99.90;;;;;;6371670;22;19909;-88
2023/03/23 02:29:15;;;;;;;;;;;12.30;99.90;;;;;;6371053;22;19976;-87
2023/03/23 02:31:52;;;;;;;;;;;12.30;99.90;;;;;;6371260;22;19902;-87
2023/03/23 02:34:18;;;;;;;;;;;12.30;99.90;;;;;;6372189;22;19907;-87
2023/03/23 02:36:55;;;;;;;;;;;12.30;99.90;;;;;;6371227;22;20005;-87
2023/03/23 02:39:53;;;;;;;;;;;12.30;99.90;;;;;;6371942;22;19937;-87
2023/03/23 02:42:23;;;;;;;;;;;12.30;99.90;;;;;;6301510;22;20314;-87
2023/03/23 02:44:49;;;;;;;;;;;12.50;99.90;;;;;;6371362;22;19910;-87
2023/03/23 02:47:20;;;;;;;;;;;13.30;99.90;;;;;;6371855;22;19910;-87
2023/03/23 02:49:47;;;;;;;;;;;12.80;99.90;;;;;;6371154;22;19926;-88
2023/03/23 02:52:16;;;;;;;;;;;13.30;99.90;;;;;;6371811;22;19902;-87
2023/03/23 02:54:44;;;;;;;;;;;12.30;99.90;;;;;;6370788;22;19983;-87
2023/03/23 02:57:09;;;;;;;;;;;12.30;99.90;;;;;;6371118;22;19914;-88
2023/03/23 02:59:35;;;;;;;;;;;12.30;99.90;;;;;;6370867;22;19907;-87
2023/03/23 03:02:15;;;;;;;;;;;12.30;99.90;;;;;;6371372;22;19947;-88
2023/03/23 03:04:46;;;;;;;;;;;12.30;99.90;;;;;;6370776;22;19937;-89
2023/03/23 03:07:19;;;;;;;;;;;13.70;99.90;;;;;;6371502;22;19924;-87
2023/03/23 03:09:50;;;;;;;;;;;11.60;99.90;;;;;;6371030;22;19915;-87
2023/03/23 03:12:22;;;;;;;;;;;12.30;99.90;;;;;;6370757;22;20306;-88
2023/03/23 03:14:55;;;;;;;;;;;13.20;99.90;;;;;;6371099;22;19917;-88
2023/03/23 03:17:23;;;;;;;;;;;12.30;99.90;;;;;;6371165;22;19910;-87
2023/03/23 03:19:51;;;;;;;;;;;13.10;99.90;;;;;;6370776;22;19906;-88
2023/03/23 03:22:17;;;;;;;;;;;12.80;99.90;;;;;;6371088;22;20401;-87
2023/03/23 03:24:43;;;;;;;;;;;13.30;99.90;;;;;;6370543;22;19916;-88
2023/03/23 03:27:16;;;;;;;;;;;13.00;99.90;;;;;;6371634;22;19977;-87
2023/03/23 03:29:45;;;;;;;;;;;12.30;99.90;;;;;;6370907;22;20310;-88
2023/03/23 03:32:21;;;;;;;;;;;13.20;99.90;;;;;;6371165;22;19974;-88
2023/03/23 03:34:52;;;;;;;;;;;12.30;99.90;;;;;;6370962;22;19955;-87
2023/03/23 03:37:18;;;;;;;;;;;12.30;99.90;;;;;;6371178;22;19917;-86
2023/03/23 03:39:44;;;;;;;;;;;12.90;99.90;;;;;;6370019;22;19906;-87
2023/03/23 03:42:10;;;;;;;;;;;12.20;99.90;;;;;;6371360;22;19973;-88
2023/03/23 03:44:35;;;;;;;;;;;13.00;99.90;;;;;;6371007;22;19902;-87
2023/03/23 03:47:01;;;;;;;;;;;12.30;99.90;;;;;;6370850;22;19955;-87
2023/03/23 03:49:26;;;;;;;;;;;13.30;99.90;;;;;;6371023;22;20306;-87
2023/03/23 03:51:55;;;;;;;;;;;13.50;99.90;;;;;;6370656;22;19902;-86
2023/03/23 03:54:24;;;;;;;;;;;13.00;99.90;;;;;;6371104;22;19947;-87
2023/03/23 03:56:51;;;;;;;;;;;12.30;99.90;;;;;;6369023;22;19910;-87
2023/03/23 03:59:21;;;;;;;;;;;13.50;99.90;;;;;;6370718;22;19906;-86
2023/03/23 04:01:47;;;;;;;;;;;12.10;99.90;;;;;;6370339;22;19907;-86
2023/03/23 04:04:13;;;;;;;;;;;13.40;99.90;;;;;;6371452;22;19909;-88
2023/03/23 04:06:41;;;;;;;;;;;12.30;99.90;;;;;;6366544;22;19906;-87
2023/03/23 04:09:07;;;;;;;;;;;12.30;99.90;;;;;;6370380;22;19906;-87
2023/03/23 04:11:35;;;;;;;;;;;12.30;99.90;;;;;;6370365;22;19937;-87
2023/03/23 04:14:04;;;;;;;;;;;13.50;99.90;;;;;;6369956;22;20306;-88
2023/03/23 04:16:30;;;;;;;;;;;11.40;99.90;;;;;;6369789;22;19914;-87
2023/03/23 04:18:56;;;;;;;;;;;13.30;99.90;;;;;;6371378;22;20374;-87
2023/03/23 04:21:21;;;;;;;;;;;12.80;99.90;;;;;;6370528;22;19902;-89
2023/03/23 04:23:47;;;;;;;;;;;13.60;99.90;;;;;;6369934;22;19911;-88
2023/03/23 04:26:12;;;;;;;;;;;12.30;99.90;;;;;;6370803;22;19955;-86
2023/03/23 04:28:38;;;;;;;;;;;12.50;99.90;;;;;;6369749;22;19953;-85
2023/03/23 04:31:04;;;;;;;;;;;12.30;99.90;;;;;;6371049;22;20310;-88
2023/03/23 04:33:30;;;;;;;;;;;11.20;99.90;;;;;;6370506;22;19902;-87
2023/03/23 04:35:56;;;;;;;;;;;13.20;99.90;;;;;;6370255;22;19910;-87
2023/03/23 04:38:24;;;;;;;;;;;12.30;99.90;;;;;;6370241;22;20363;-88
2023/03/23 04:40:51;;;;;;;;;;;12.90;99.90;;;;;;6370629;22;20272;-87
2023/03/23 04:43:21;;;;;;;;;;;12.30;99.90;;;;;;6370187;22;19910;-88
2023/03/23 04:45:47;;;;;;;;;;;12.20;99.90;;;;;;6370040;22;20310;-88
2023/03/23 04:48:19;;;;;;;;;;;13.50;99.90;;;;;;6370863;22;19983;-86
2023/03/23 04:50:45;;;;;;;;;;;12.20;99.90;;;;;;6370001;22;19902;-87
2023/03/23 04:53:17;;;;;;;;;;;12.50;99.90;;;;;;6370523;22;19938;-88
2023/03/23 04:55:47;;;;;;;;;;;12.60;99.90;;;;;;6369621;22;19906;-87
2023/03/23 04:58:14;;;;;;;;;;;12.80;99.90;;;;;;6370404;22;20211;-87
2023/03/23 05:00:43;;;;;;;;;;;13.00;99.90;;;;;;6370113;22;19903;-87
2023/03/23 05:03:18;;;;;;;;;;;12.10;99.90;;;;;;6369816;22;19906;-86
2023/03/23 05:06:00;;;;;;;;;;;12.20;99.90;;;;;;6369873;22;19938;-86
2023/03/23 05:08:26;;;;;;;;;;;12.60;99.90;;;;;;6370521;22;20024;-86
2023/03/23 05:10:56;;;;;;;;;;;12.20;99.90;;;;;;6369124;22;19937;-87
2023/03/23 05:13:22;;;;;;;;;;;12.00;99.90;;;;;;6369817;22;20219;-87
2023/03/23 05:15:47;;;;;;;;;;;12.10;99.90;;;;;;6370344;22;19918;-89
2023/03/23 05:18:16;;;;;;;;;;;13.00;99.90;;;;;;6369920;22;20307;-88
2023/03/23 05:20:42;;;;;;;;;;;11.80;99.90;;;;;;6369483;22;19909;-87
2023/03/23 05:23:08;;;;;;;;;;;12.70;99.90;;;;;;6369857;22;19906;-87
2023/03/23 05:25:39;;;;;;;;;;;12.40;99.90;;;;;;6369667;22;19902;-88
2023/03/23 05:28:11;;;;;;;;;;;11.50;99.90;;;;;;6369792;22;19977;-87
2023/03/23 05:30:40;;;;;;;;;;;11.90;99.90;;;;;;6369665;22;19993;-87
2023/03/23 05:33:06;;;;;;;;;;;12.90;99.90;;;;;;6370214;22;20370;-87
2023/03/23 05:35:31;;;;;;;;;;;13.20;99.90;;;;;;6370056;22;19978;-87
2023/03/23 05:37:57;;;;;;;;;;;11.90;99.90;;;;;;6369421;22;20588;-88
2023/03/23 05:40:25;;;;;;;;;;;11.90;99.90;;;;;;6369842;22;19903;-87
2023/03/23 05:42:50;;;;;;;;;;;13.00;99.90;;;;;;6370321;22;20315;-87
2023/03/23 05:45:16;;;;;;;;;;;13.10;99.90;;;;;;6372125;22;19955;-87
2023/03/23 05:47:45;;;;;;;;;;;11.90;99.90;;;;;;6362293;22;20341;-87
2023/03/23 05:50:17;;;;;;;;;;;13.10;99.90;;;;;;6371641;22;19931;-87
2023/03/23 05:53:01;;;;;;;;;;;12.70;99.90;;;;;;6371903;22;19981;-88
2023/03/23 05:55:42;;;;;;;;;;;12.00;99.90;;;;;;6371287;22;20306;-86
2023/03/23 05:58:16;;;;;;;;;;;12.00;99.90;;;;;;6371715;22;19981;-87
2023/03/23 06:01:00;;;;;;;;;;;12.00;99.90;;;;;;6370711;22;19922;-87
2023/03/23 06:03:37;;;;;;;;;;;12.00;99.90;;;;;;6371911;22;19947;-88
2023/03/23 06:06:03;;;;;;;;;;;12.00;99.90;;;;;;6371465;22;20233;-87
2023/03/23 06:08:51;;;;;;;;;;;12.00;99.90;;;;;;6371173;22;20325;-88
2023/03/23 06:11:17;;;;;;;;;;;11.50;99.90;;;;;;6372018;22;19956;-86
2023/03/23 06:13:42;;;;;;;;;;;11.90;99.90;;;;;;6371085;22;20238;-86
2023/03/23 06:16:17;;;;;;;;;;;12.00;99.90;;;;;;6371176;22;19910;-86
2023/03/23 06:18:46;;;;;;;;;;;12.00;99.90;;;;;;6370211;22;19902;-86
2023/03/23 06:21:26;;;;;;;;;;;11.90;99.90;;;;;;6370712;22;19906;-87
2023/03/23 06:23:52;;;;;;;;;;;12.00;99.90;;;;;;6371231;22;20259;-88
2023/03/23 06:26:19;;;;;;;;;;;13.10;99.90;;;;;;6371826;22;19910;-88
2023/03/23 06:28:48;;;;;;;;;;;12.50;99.90;;;;;;6371053;22;19903;-88
2023/03/23 06:31:26;;;;;;;;;;;11.90;99.90;;;;;;6371140;22;19902;-88
2023/03/23 06:33:52;;;;;;;;;;;11.00;99.90;;;;;;6371237;22;19912;-87
2023/03/23 06:36:18;;;;;;;;;;;12.50;99.90;;;;;;6371618;22;19959;-87
2023/03/23 06:38:44;;;;;;;;;;;12.50;99.90;;;;;;6371250;22;19960;-86
2023/03/23 06:41:28;;;;;;;;;;;12.20;99.90;;;;;;6371355;22;19902;-87
2023/03/23 06:44:13;;;;;;;;;;;11.00;99.90;;;;;;6371306;22;19902;-86
2023/03/23 06:46:48;;;;;;;;;;;11.90;99.90;;;;;;6371385;22;19910;-87
2023/03/23 06:49:46;;;;;;;;;;;11.80;99.90;;;;;;6371074;22;19951;-87
2023/03/23 06:52:11;;;;;;;;;;;11.80;99.90;;;;;;6243867;23;20328;-88
2023/03/23 06:54:37;;;;;;;;;;;12.00;99.90;;;;;;6242294;23;19915;-88
2023/03/23 06:59:57;;;;;;;;;;;13.00;99.90;;;;;;6371098;22;20284;-87
2023/03/23 07:02:38;;;;;;;;;;;12.30;99.90;;;;;;6371190;22;19971;-87
2023/03/23 07:05:10;;;;;;;;;;;12.20;99.90;;;;;;6371084;22;19977;-88
2023/03/23 07:07:36;;;;;;;;;;;12.10;99.90;;;;;;6373647;22;19906;-88
2023/03/23 07:10:03;;;;;;;;;;;12.90;99.90;;;;;;6368903;22;20257;-87
2023/03/23 07:12:46;;;;;;;;;;;11.80;99.90;;;;;;6370813;22;19906;-86
2023/03/23 07:15:30;;;;;;;;;;;11.20;99.90;;;;;;6371454;22;19902;-87
2023/03/23 07:18:05;;;;;;;;;;;11.50;99.90;;;;;;6370944;22;19912;-86
2023/03/23 07:20:43;;;;;;;;;;;12.50;99.90;;;;;;6371015;22;20295;-86
2023/03/23 07:23:23;;;;;;;;;;;11.80;99.90;;;;;;6370681;22;20244;-87
2023/03/23 07:26:07;;;;;;;;;;;12.50;99.90;;;;;;6370988;22;19902;-87
2023/03/23 07:28:33;;;;;;;;;;;11.80;99.90;;;;;;6370971;22;19977;-87
2023/03/23 07:31:11;;;;;;;;;;;12.90;99.90;;;;;;6370601;22;20349;-87
2023/03/23 07:33:48;;;;;;;;;;;11.70;99.90;;;;;;6371055;22;20276;-87
2023/03/23 07:36:26;;;;;;;;;;;11.60;99.90;;;;;;6371153;22;19917;-87
2023/03/23 07:39:07;;;;;;;;;;;11.70;99.90;;;;;;6370601;22;19909;-87
2023/03/23 07:44:12;;;;;;;;;;;11.70;99.90;;;;;;6337129;22;19922;-86
2023/03/23 07:46:54;;;;;;;;;;;12.00;99.90;;;;;;6339000;22;19906;-87
2023/03/23 07:49:35;;;;;;;;;;;11.80;99.90;;;;;;6339378;22;19902;-87
2023/03/23 07:52:20;;;;;;;;;;;12.10;99.90;;;;;;6338860;22;20350;-88
2023/03/23 07:55:07;;;;;;;;;;;11.80;99.90;;;;;;6332054;22;19919;-87
2023/03/23 07:57:33;;;;;;;;;;;11.70;99.90;;;;;;6339081;22;19914;-88
2023/03/23 08:00:19;;;;;;;;;;;12.60;99.90;;;;;;6338907;22;19937;-89
2023/03/23 08:02:48;;;;;;;;;;;10.60;99.90;;;;;;6327144;22;20373;-87
2023/03/23 08:07:59;;;;;;;;;;;11.80;99.90;;;;;;6339123;22;20357;-88
2023/03/23 08:10:42;;;;;;;;;;;11.30;99.90;;;;;;6338736;22;19913;-88
2023/03/23 08:13:23;;;;;;;;;;;11.80;99.90;;;;;;6338682;22;20341;-88
2023/03/23 08:16:10;;;;;;;;;;;11.80;99.90;;;;;;6338936;22;19910;-88
2023/03/23 08:18:54;;;;;;;;;;;11.80;99.90;;;;;;6338813;22;19903;-88
2023/03/23 08:21:22;;;;;;;;;;;11.70;99.90;;;;;;6338493;22;19910;-87
2023/03/23 08:23:47;;;;;;;;;;;12.90;99.90;;;;;;6338530;22;19964;-87
2023/03/23 08:26:22;;;;;;;;;;;12.80;99.90;;;;;;6339158;22;19981;-88
2023/03/23 08:28:47;;;;;;;;;;;11.90;99.90;;;;;;6338694;22;20067;-88
2023/03/23 08:31:18;;;;;;;;;;;13.10;99.90;;;;;;6343494;22;19932;-88
2023/03/23 08:33:43;;;;;;;;;;;11.90;99.90;;;;;;6338636;22;19902;-87
2023/03/23 08:36:09;;;;;;;;;;;11.70;99.90;;;;;;6339277;22;19907;-88
2023/03/23 08:38:34;;;;;;;;;;;11.80;99.90;;;;;;6339915;22;19902;-89
2023/03/23 08:41:04;;;;;;;;;;;12.10;99.90;;;;;;6340601;22;20218;-90
2023/03/23 08:43:32;;;;;;;;;;;10.90;99.90;;;;;;6341102;22;20330;-89
2023/03/23 08:46:08;;;;;;;;;;;12.00;99.90;;;;;;6339871;22;19906;-89
2023/03/23 08:48:49;;;;;;;;;;;12.00;99.90;;;;;;6338318;22;19914;-86
2023/03/23 08:51:29;;;;;;;;;;;12.00;99.90;;;;;;6338929;22;19906;-89
2023/03/23 08:54:20;;;;;;;;;;;12.00;99.90;;;;;;6338445;22;19918;-88
2023/03/23 08:57:22;;;;;;;;;;;;;;;;;;;;;
2023/03/23 09:00:17;;;;;;;;;;;11.90;99.90;;;;;;6329152;22;20299;-88
2023/03/23 09:03:08;;;;;;;;;;;12.70;99.90;;;;;;6310260;22;19907;-89
2023/03/23 09:11:20;;;;;;;;;;;12.00;99.90;;;;;;6339719;22;19909;-89
2023/03/23 09:13:46;;;;;;;;;;;13.30;99.90;;;;;;6339529;22;19911;-90
2023/03/23 09:16:21;;;;;;;;;;;13.30;99.90;;;;;;6339701;22;19953;-90
2023/03/23 09:18:46;;;;;;;;;;;12.70;99.90;;;;;;6338430;22;19986;-88
2023/03/23 09:21:27;;;;;;;;;;;13.10;99.90;;;;;;6339174;22;19902;-88
2023/03/23 09:24:09;;;;;;;;;;;12.20;99.90;;;;;;6338687;22;19960;-88
2023/03/23 09:26:58;;;;;;;;;;;12.20;99.90;;;;;;6339788;22;19981;-87
2023/03/23 09:29:33;;;;;;;;;;;12.10;99.90;;;;;;6319869;22;20277;-86
2023/03/23 09:32:00;;;;;;;;;;;12.60;99.90;;;;;;6338193;22;19943;-86
2023/03/23 09:34:39;;;;;;;;;;;12.20;99.90;;;;;;6338895;22;19903;-87
2023/03/23 09:37:12;;;;;;;;;;;12.20;99.90;;;;;;6338159;22;20018;-85
2023/03/23 09:39:38;;;;;;;;;;;11.50;99.90;;;;;;6338227;22;19926;-88
2023/03/23 09:42:07;;;;;;;;;;;12.30;99.90;;;;;;6338655;22;19913;-87
2023/03/23 09:44:51;;;;;;;;;;;12.30;99.90;;;;;;6337648;22;19906;-85
2023/03/23 09:47:25;;;;;;;;;;;12.40;99.90;;;;;;6338255;22;19993;-85
2023/03/23 09:50:09;;;;;;;;;;;12.30;99.90;;;;;;6338738;22;19907;-86
2023/03/23 09:52:38;;;;;;;;;;;12.40;99.90;;;;;;6337778;22;19910;-85
2023/03/23 09:55:23;;;;;;;;;;;13.60;99.90;;;;;;6338463;22;19918;-85
2023/03/23 09:57:52;;;;;;;;;;;12.30;99.90;;;;;;6337933;22;20219;-86
2023/03/23 10:00:24;;;;;;;;;;;12.30;99.90;;;;;;6338993;22;19907;-90
2023/03/23 10:03:08;;;;;;;;;;;12.40;99.90;;;;;;6338192;22;20208;-87
2023/03/23 10:05:39;;;;;;;;;;;12.30;99.90;;;;;;6337927;22;19902;-85
2023/03/23 10:08:15;;;;;;;;;;;12.30;99.90;;;;;;6338078;22;19910;-87
2023/03/23 10:10:49;;;;;;;;;;;13.20;99.90;;;;;;6338388;22;19906;-87
2023/03/23 10:13:35;;;;;;;;;;;12.40;99.90;;;;;;6336983;22;19910;-89
2023/03/23 10:16:02;;;;;;;;;;;13.40;99.90;;;;;;6338937;22;20230;-87
2023/03/23 10:18:40;;;;;;;;;;;13.30;99.90;;;;;;6337958;22;19910;-88
2023/03/23 10:21:26;;;;;;;;;;;12.50;99.90;;;;;;6338474;22;19903;-90
2023/03/23 10:23:59;;;;;;;;;;;12.60;99.90;;;;;;6338932;22;19903;-89
2023/03/23 10:26:24;;;;;;;;;;;12.50;99.90;;;;;;6339263;22;19906;-88
2023/03/23 10:28:52;;;;;;;;;;;12.50;99.90;;;;;;6344331;22;20251;-89
2023/03/23 10:31:23;;;;;;;;;;;12.60;99.90;;;;;;6341763;22;19903;-88
2023/03/23 10:34:54;;;;;;;;;;;;;;;;;;;;;
2023/03/23 10:37:52;;;;;;;14.60;4.07;;;13.30;99.90;;;;;;5076155;28;20514;-89
2023/03/23 10:40:27;;;;;;;10.73;3.33;;;12.50;99.90;;;;;;5073937;28;20057;-86
2023/03/23 10:43:02;;;;;;;18.65;3.92;;;14.00;99.90;;;;;;5055873;23;20132;-87
2023/03/23 10:45:34;;;;;;;14.43;3.10;;;12.60;99.90;;;;;;5044433;28;20149;-87
2023/03/23 10:48:22;;;;;;;12.48;2.83;;;12.30;99.90;;;;;;5040366;28;20025;-88
2023/03/23 10:50:54;;;;;;;18.02;4.43;;;13.40;99.90;;;;;;5034659;28;20075;-86
2023/03/23 10:53:32;;;;;;;9.85;2.95;;;12.60;99.90;;;;;;5041897;28;20124;-87
2023/03/23 10:55:58;;;;;;;14.73;3.10;;;13.20;99.90;;;;;;5034839;28;20033;-87
2023/03/23 10:58:31;;;;;;;14.75;3.08;;;13.70;99.90;;;;;;5045732;28;20029;-87
2023/03/23 11:01:03;;;;;;;10.90;3.10;;;12.90;99.90;;;;;;5040057;28;20045;-89
2023/03/23 11:03:51;;;;;;;13.35;2.83;;;13.50;99.90;;;;;;5033275;28;20386;-88
2023/03/23 11:06:39;;;;;;;22.30;3.40;;;12.80;99.90;;;;;;5041912;28;20053;-88
2023/03/23 11:09:18;;;;;;;13.65;2.95;;;13.50;99.90;;;;;;5041864;28;20036;-90
2023/03/23 11:11:52;;;;;;;21.30;5.13;;;13.40;99.90;;;;;;5049015;28;20540;-89
2023/03/23 11:14:38;;;;;;;15.70;3.40;;;13.60;99.90;;;;;;5048736;28;20034;-89
2023/03/23 11:17:24;;;;;;;11.73;3.00;;;13.60;99.90;;;;;;5049164;28;20025;-89
2023/03/23 11:19:58;;;;;;;16.85;3.22;;;13.50;99.90;;;;;;5049563;28;20048;-87
2023/03/23 11:22:40;;;;;;;13.57;3.05;;;12.60;99.90;;;;;;5048901;28;20055;-88
2023/03/23 11:25:06;;;;;;;16.10;3.67;;;13.60;99.90;;;;;;5049087;28;20075;-87
2023/03/23 11:27:32;;;;;;;14.32;3.10;;;13.00;99.90;;;;;;5048965;28;20029;-88
2023/03/23 11:30:27;;;;;;;16.73;3.90;;;13.60;99.90;;;;;;5048509;28;20022;-87
2023/03/23 11:32:56;;;;;;;14.80;3.83;;;12.90;99.90;;;;;;5048797;28;20044;-85
2023/03/23 11:35:25;;;;;;;17.25;3.75;;;13.30;99.90;;;;;;5040364;28;20026;-88
2023/03/23 11:37:58;;;;;;;21.10;4.00;;;12.80;99.90;;;;;;5047684;28;20029;-88
2023/03/23 11:40:33;;;;;;;15.60;3.00;;;12.80;99.90;;;;;;5047304;28;20086;-87
2023/03/23 11:43:12;;;;;;;10.98;2.20;;;12.80;99.90;;;;;;5045046;28;20048;-89
2023/03/23 11:45:46;;;;;;;15.38;3.10;;;12.90;99.90;;;;;;5033335;28;20377;-89
2023/03/23 11:48:27;;;;;;;7.63;2.38;;;13.60;99.90;;;;;;5036304;28;20026;-87
2023/03/23 11:51:00;;;;;;;14.13;3.45;;;13.00;99.90;;;;;;5033949;28;20032;-88
2023/03/23 11:53:45;;;;;;;8.32;2.47;;;13.00;99.90;;;;;;5036848;28;20050;-88
2023/03/23 11:56:24;;;;;;;10.88;2.50;;;13.10;99.90;;;;;;5030712;28;20083;-88
2023/03/23 11:58:51;;;;;;;10.07;2.22;;;13.10;99.90;;;;;;5027341;28;20350;-88
2023/03/23 12:01:46;;;;;;;12.43;3.08;;;13.10;99.90;;;;;;5027599;28;20021;-88
2023/03/23 12:04:52;;;;;;;15.90;3.40;;;13.10;99.90;;;;;;5026369;28;20107;-86
2023/03/23 12:07:23;;;;;;;16.83;3.15;;;13.10;99.90;;;;;;5021551;28;20045;-88
2023/03/23 12:10:22;;;;;;;9.40;2.83;;;13.10;99.90;;;;;;5022730;28;20017;-87
2023/03/23 12:12:56;;;;;;;12.07;2.95;;;13.10;99.90;;;;;;5018081;28;20068;-87
2023/03/23 12:15:41;;;;;;;9.25;2.58;;;13.20;99.90;;;;;;5020947;28;20097;-86
2023/03/23 12:18:18;;;;;;;8.15;2.25;;;13.30;99.90;;;;;;5026814;28;20024;-87
2023/03/23 12:20:52;;;;;;;9.15;2.50;;;13.50;99.90;;;;;;5024243;28;20083;-88
2023/03/23 12:23:34;;;;;;;7.03;2.08;;;13.50;99.90;;;;;;5033875;28;20022;-88
2023/03/23 12:26:23;;;;;;;18.63;2.67;;;13.60;99.90;;;;;;5033680;28;20052;-88
2023/03/23 12:29:01;;;;;;;13.52;2.35;;;13.70;99.90;;;;;;5034797;28;20028;-88
2023/03/23 12:31:41;;;;;;;13.43;2.78;;;13.80;99.90;;;;;;5034912;28;20029;-88
2023/03/23 12:34:32;;;;;;;9.27;2.20;;;13.80;99.90;;;;;;5034688;28;20033;-88
2023/03/23 12:37:17;;;;;;;9.23;2.25;;;13.80;99.90;;;;;;5035285;28;20017;-88
2023/03/23 12:40:22;;;;;;;7.75;1.80;;;13.80;99.90;;;;;;5034191;28;20121;-88
2023/03/23 12:43:47;;;;;;;9.27;2.53;;;13.80;99.90;;;;;;5034295;28;20028;-88
2023/03/23 12:46:29;;;;;;;7.15;1.90;;;13.80;99.90;;;;;;5012427;28;20033;-87
2023/03/23 12:49:11;;;;;;;8.90;2.55;;;13.70;99.90;;;;;;5011726;28;20421;-87
2023/03/23 12:52:03;;;;;;;8.70;2.10;;;13.90;99.90;;;;;;5012734;28;20018;-87
2023/03/23 12:54:37;;;;;;;7.57;2.22;;;13.70;99.90;;;;;;5024081;28;20052;-88
2023/03/23 12:57:14;;;;;;;6.57;1.88;;;13.90;99.90;;;;;;5033060;28;20028;-88
2023/03/23 13:02:31;;;;;;;11.45;3.28;;;14.10;99.90;;;;;;5013077;22;20481;-88
2023/03/23 13:05:36;;;;;;;11.63;2.15;;;14.10;99.90;;;;;;5023495;22;20041;-89
2023/03/23 13:08:26;;;;;;;4.50;1.40;;;14.10;99.90;;;;;;5054020;28;20032;-88
2023/03/23 13:10:59;;;;;;;10.48;2.33;;;14.60;99.90;;;;;;5053955;28;20025;-88
2023/03/23 13:14:00;;;;;;;10.50;1.88;;;14.10;99.90;;;;;;5054272;28;20095;-89
2023/03/23 13:16:53;;;;;;;8.27;2.05;;;13.90;99.90;;;;;;5075550;22;20103;-87
2023/03/23 13:20:29;;;;;;;6.03;2.13;;;14.60;99.90;;;;;;5054255;28;20082;-88
2023/03/23 13:23:28;;;;;;;7.25;2.20;;;14.00;99.90;;;;;;5053437;28;20099;-88
2023/03/23 13:26:11;;;;;;;10.55;2.78;;;14.40;99.90;;;;;;5053604;28;20056;-87
2023/03/23 13:29:08;;;;;;;6.13;2.25;;;14.00;99.90;;;;;;5039877;28;20029;-88
2023/03/23 13:31:47;;;;;;;16.25;2.85;;;14.00;99.90;;;;;;5095105;22;20709;-87
2023/03/23 13:34:46;;;;;;;9.88;2.88;;;14.10;99.90;;;;;;5090346;22;20040;-87
2023/03/23 13:37:52;;;;;;;8.45;2.72;;;14.00;99.90;;;;;;5064964;22;20045;-88
2023/03/23 13:40:29;;;;;;;10.93;3.42;;;13.90;99.90;;;;;;5036689;28;20039;-87
2023/03/23 13:42:57;;;;;;;10.30;2.30;;;13.30;99.90;;;;;;5037266;28;20476;-85
2023/03/23 13:45:33;;;;;;;13.32;2.75;;;13.20;99.90;;;;;;5057782;23;20029;-86
2023/03/23 13:48:12;;;;;;;9.40;2.35;;;13.10;99.90;;;;;;5072830;28;20043;-87
2023/03/23 13:50:54;;;;;;;12.30;3.33;;;13.10;99.90;;;;;;5071163;28;21378;-87
2023/03/23 13:53:42;;;;;;;11.73;2.65;;;13.10;99.90;;;;;;5072084;28;20048;-86
2023/03/23 13:56:20;;;;;;;9.63;2.08;;;13.30;99.90;;;;;;5072005;28;20103;-85
2023/03/23 13:58:53;;;;;;;13.60;3.60;;;13.30;99.90;;;;;;5070840;28;20021;-88
2023/03/23 14:01:39;;;;;;;12.88;3.13;;;13.40;99.90;;;;;;5070757;28;20030;-88
2023/03/23 14:04:17;;;;;;;11.07;3.28;;;13.50;99.90;;;;;;5069955;28;20038;-88
2023/03/23 14:06:45;;;;;;;13.00;2.80;;;13.60;99.90;;;;;;5070362;28;20032;-87
2023/03/23 14:09:22;;;;;;;14.60;3.38;;;13.80;99.90;;;;;;5072829;28;20546;-88
2023/03/23 14:11:55;;;;;;;10.20;2.30;;;13.90;99.90;;;;;;5073211;28;20082;-88
2023/03/23 14:14:28;;;;;;;9.65;2.80;;;14.00;99.90;;;;;;5073060;28;20035;-89
2023/03/23 14:17:11;;;;;;;9.13;2.95;;;14.00;99.90;;;;;;5073110;28;20136;-88
2023/03/23 14:19:39;;;;;;;15.75;3.45;;;14.10;99.90;;;;;;5072368;28;20029;-89
2023/03/23 14:22:26;;;;;;;13.57;3.40;;;14.10;99.90;;;;;;5072969;28;20464;-91
2023/03/23 14:24:58;;;;;;;9.07;2.30;;;14.30;99.90;;;;;;5073213;28;20036;-88
2023/03/23 14:27:24;;;;;;;11.27;2.25;;;14.40;99.90;;;;;;5073160;28;20088;-88
2023/03/23 14:37:08;;;;;;;9.80;1.90;;;14.10;99.90;;;;;;5664663;22;20050;-90
2023/03/23 14:40:24;;;;;;;9.18;2.60;;;14.60;99.90;;;;;;5000887;28;20045;-88
2023/03/23 14:42:56;;;;;;;7.47;2.13;;;14.60;99.90;;;;;;4977858;28;20046;-89
2023/03/23 14:45:34;;;;;;;13.68;3.08;;;14.80;99.90;;;;;;4994159;28;20042;-90
2023/03/23 14:48:12;;;;;;;9.95;2.10;;;14.70;99.90;;;;;;4993957;28;20022;-89
2023/03/23 14:50:51;;;;;;;9.35;2.78;;;14.30;99.90;;;;;;4993654;28;20121;-88
2023/03/23 14:53:25;;;;;;;11.00;2.35;;;15.30;99.90;;;;;;4991905;28;20086;-89
2023/03/23 14:56:12;;;;;;;8.45;2.40;;;14.90;99.90;;;;;;4993355;28;20517;-89
2023/03/23 14:58:48;;;;;;;10.32;2.92;;;14.70;99.90;;;;;;4993918;28;20047;-89